createdAt,value
2023-07-22T00:01:55.556Z,74.00
2023-07-22T00:04:23.456Z,73.80
2023-07-22T00:06:52.862Z,74.00
2023-07-22T00:09:21.276Z,74.10
2023-07-22T00:11:52.041Z,73.40
2023-07-22T00:14:20.188Z,73.20
2023-07-22T00:16:48.901Z,72.30
2023-07-22T00:19:18.553Z,72.00
2023-07-22T00:21:47.588Z,71.40
2023-07-22T00:24:16.893Z,71.10
2023-07-22T00:26:44.893Z,71.40
2023-07-22T00:29:12.820Z,71.40
2023-07-22T00:31:42.485Z,70.50
2023-07-22T00:34:10.534Z,71.80
2023-07-22T00:36:38.887Z,72.10
2023-07-22T00:39:06.943Z,71.70
2023-07-22T00:41:36.239Z,70.90
2023-07-22T00:44:04.262Z,72.90
2023-07-22T00:46:32.189Z,72.10
2023-07-22T00:49:00.526Z,71.60
2023-07-22T00:51:28.427Z,71.90
2023-07-22T00:53:57.742Z,71.90
2023-07-22T00:56:26.361Z,72.00
2023-07-22T00:58:55.855Z,72.10
2023-07-22T01:01:23.865Z,72.60
2023-07-22T01:03:51.957Z,71.60
2023-07-22T01:06:20.793Z,71.70
2023-07-22T01:08:48.731Z,70.90
2023-07-22T01:11:17.015Z,71.10
2023-07-22T01:13:45.080Z,72.70
2023-07-22T01:16:14.621Z,72.40
2023-07-22T01:18:42.897Z,71.60
2023-07-22T01:21:11.873Z,70.10
2023-07-22T01:23:41.938Z,70.30
2023-07-22T01:26:09.822Z,70.30
2023-07-22T01:28:37.935Z,70.30
2023-07-22T01:31:06.339Z,70.60
2023-07-22T01:33:34.766Z,70.30
2023-07-22T01:36:04.024Z,70.80
2023-07-22T01:38:32.182Z,71.10
2023-07-22T01:41:01.529Z,71.30
2023-07-22T01:43:29.451Z,70.90
2023-07-22T01:45:57.464Z,70.50
2023-07-22T01:48:26.301Z,70.40
2023-07-22T01:50:54.296Z,71.20
2023-07-22T01:53:22.865Z,71.10
2023-07-22T01:55:50.891Z,71.40
2023-07-22T01:58:20.274Z,71.90
2023-07-22T02:00:51.794Z,70.80
2023-07-22T02:03:19.909Z,70.50
2023-07-22T02:05:48.008Z,72.00
2023-07-22T02:08:16.012Z,72.60
2023-07-22T02:10:44.630Z,73.10
2023-07-22T02:13:12.582Z,72.90
2023-07-22T02:15:43.998Z,72.00
2023-07-22T02:18:11.919Z,71.40
2023-07-22T02:20:40.206Z,71.30
2023-07-22T02:23:10.363Z,72.40
2023-07-22T02:25:39.093Z,72.00
2023-07-22T02:28:07.247Z,71.70
2023-07-22T02:30:36.201Z,71.20
2023-07-22T02:33:07.321Z,71.30
2023-07-22T02:35:35.353Z,71.70
2023-07-22T02:38:03.670Z,72.30
2023-07-22T02:40:31.667Z,71.50
2023-07-22T02:42:59.566Z,71.60
2023-07-22T02:45:27.802Z,71.30
2023-07-22T02:47:55.806Z,71.40
2023-07-22T02:50:25.063Z,71.40
2023-07-22T02:52:53.071Z,72.20
2023-07-22T02:55:21.124Z,72.90
2023-07-22T02:57:50.006Z,71.60
2023-07-22T03:00:24.394Z,72.70
2023-07-22T03:02:53.559Z,72.80
2023-07-22T03:05:22.260Z,71.40
2023-07-22T03:07:51.623Z,71.60
2023-07-22T03:10:19.511Z,71.90
2023-07-22T03:12:47.409Z,72.40
2023-07-22T03:15:15.433Z,73.20
2023-07-22T03:17:44.004Z,72.50
2023-07-22T03:20:15.545Z,72.10
2023-07-22T03:22:43.886Z,71.90
2023-07-22T03:25:14.467Z,71.70
2023-07-22T03:27:42.603Z,71.80
2023-07-22T03:30:15.758Z,72.30
2023-07-22T03:32:44.325Z,73.80
2023-07-22T03:35:13.018Z,72.20
2023-07-22T03:37:41.464Z,72.30
2023-07-22T03:40:15.707Z,71.80
2023-07-22T03:42:44.983Z,71.30
2023-07-22T03:45:12.874Z,70.60
2023-07-22T03:47:41.416Z,71.80
2023-07-22T03:50:10.444Z,71.20
2023-07-22T03:52:38.356Z,71.20
2023-07-22T03:55:07.235Z,71.20
2023-07-22T03:57:36.667Z,72.50
2023-07-22T04:00:10.226Z,72.30
2023-07-22T04:02:40.956Z,72.00
2023-07-22T04:05:09.828Z,71.10
2023-07-22T04:07:37.945Z,71.60
2023-07-22T04:10:06.871Z,71.60
2023-07-22T04:12:34.799Z,71.20
2023-07-22T04:15:02.762Z,71.00
2023-07-22T04:17:32.371Z,71.20
2023-07-22T04:20:00.418Z,70.60
2023-07-22T04:22:28.377Z,70.90
2023-07-22T04:24:56.451Z,70.90
2023-07-22T04:27:24.405Z,70.90
2023-07-22T04:29:52.342Z,70.20
2023-07-22T04:32:20.284Z,70.30
2023-07-22T04:34:49.833Z,70.10
2023-07-22T04:37:18.718Z,71.10
2023-07-22T04:39:50.606Z,70.00
2023-07-22T04:42:18.753Z,71.60
2023-07-22T04:44:46.743Z,71.00
2023-07-22T04:47:14.703Z,70.60
2023-07-22T04:49:42.592Z,70.90
2023-07-22T04:52:11.878Z,71.10
2023-07-22T04:54:39.792Z,70.70
2023-07-22T04:57:10.990Z,71.60
2023-07-22T04:59:40.742Z,71.00
2023-07-22T05:02:08.619Z,70.60
2023-07-22T05:04:36.529Z,71.20
2023-07-22T05:07:04.703Z,71.00
2023-07-22T05:09:34.289Z,70.70
2023-07-22T05:12:24.756Z,71.30
2023-07-22T05:14:57.230Z,69.90
2023-07-22T05:17:27.027Z,70.00
2023-07-22T05:19:55.042Z,69.20
2023-07-22T05:22:23.005Z,70.00
2023-07-22T05:24:52.319Z,69.70
2023-07-22T05:27:21.891Z,70.00
2023-07-22T05:29:49.896Z,69.10
2023-07-22T05:32:33.149Z,70.40
2023-07-22T05:35:02.743Z,69.80
2023-07-22T05:37:43.825Z,69.20
2023-07-22T05:40:31.898Z,69.60
2023-07-22T05:43:05.205Z,69.50
2023-07-22T05:45:43.037Z,69.70
2023-07-22T05:48:19.481Z,68.80
2023-07-22T05:51:00.965Z,68.30
2023-07-22T05:53:28.978Z,68.80
2023-07-22T05:55:58.348Z,68.80
2023-07-22T05:58:26.313Z,69.00
2023-07-22T06:00:56.375Z,68.70
2023-07-22T06:03:24.585Z,68.60
2023-07-22T06:05:55.474Z,68.20
2023-07-22T06:08:24.354Z,68.80
2023-07-22T06:10:56.415Z,69.30
2023-07-22T06:13:30.117Z,68.60
2023-07-22T06:16:06.514Z,68.30
2023-07-22T06:18:34.499Z,68.30
2023-07-22T06:21:03.241Z,67.90
2023-07-22T06:23:32.227Z,68.50
2023-07-22T06:26:02.128Z,67.10
2023-07-22T06:28:32.369Z,67.80
2023-07-22T06:31:00.383Z,67.10
2023-07-22T06:33:29.070Z,66.80
2023-07-22T06:36:28.590Z,67.00
2023-07-22T06:39:00.583Z,67.20
2023-07-22T06:41:34.324Z,67.40
2023-07-22T06:44:27.618Z,67.60
2023-07-22T06:46:58.092Z,67.40
2023-07-22T06:49:26.389Z,67.10
2023-07-22T06:52:02.028Z,66.80
2023-07-22T06:54:38.582Z,67.20
2023-07-22T06:57:15.036Z,67.30
2023-07-22T06:59:46.847Z,66.70
2023-07-22T07:02:18.615Z,67.40
2023-07-22T07:04:56.594Z,67.90
2023-07-22T07:07:25.123Z,67.80
2023-07-22T07:09:53.276Z,67.10
2023-07-22T07:12:21.339Z,67.00
2023-07-22T07:14:52.392Z,67.00
2023-07-22T07:17:20.373Z,67.50
2023-07-22T07:19:48.277Z,68.80
2023-07-22T07:22:16.172Z,68.00
2023-07-22T07:24:44.213Z,68.30
2023-07-22T07:27:12.108Z,68.20
2023-07-22T07:29:53.517Z,68.10
2023-07-22T07:32:25.108Z,67.50
2023-07-22T07:34:53.125Z,67.70
2023-07-22T07:37:20.995Z,67.40
2023-07-22T07:39:48.926Z,67.80
2023-07-22T07:42:16.830Z,67.40
2023-07-22T07:44:44.888Z,67.90
2023-07-22T07:47:12.809Z,68.50
2023-07-22T07:49:42.400Z,69.40
2023-07-22T07:52:10.330Z,69.00
2023-07-22T07:54:38.325Z,69.00
2023-07-22T07:57:08.172Z,68.30
2023-07-22T07:59:38.651Z,68.00
2023-07-22T08:02:10.434Z,68.10
2023-07-22T08:04:38.541Z,68.40
2023-07-22T08:07:08.720Z,68.10
2023-07-22T08:09:36.725Z,67.90
2023-07-22T08:12:05.421Z,68.60
2023-07-22T08:14:33.463Z,67.80
2023-07-22T08:17:01.418Z,66.00
2023-07-22T08:19:29.348Z,65.60
2023-07-22T08:21:57.584Z,66.70
2023-07-22T08:24:26.892Z,67.00
2023-07-22T08:26:56.447Z,67.40
2023-07-22T08:29:24.417Z,66.20
2023-07-22T08:31:52.489Z,65.10
2023-07-22T08:34:20.435Z,64.10
2023-07-22T08:36:48.359Z,63.70
2023-07-22T08:39:16.294Z,64.20
2023-07-22T08:41:51.271Z,64.00
2023-07-22T08:44:24.782Z,63.90
2023-07-22T08:46:58.380Z,63.80
2023-07-22T08:49:27.691Z,62.80
2023-07-22T08:51:57.819Z,61.50
2023-07-22T08:54:26.245Z,61.90
2023-07-22T08:56:56.020Z,61.20
2023-07-22T08:59:24.008Z,61.10
2023-07-22T09:01:52.945Z,61.00
2023-07-22T09:04:21.474Z,61.30
2023-07-22T09:06:50.070Z,61.50
2023-07-22T09:09:18.771Z,62.10
2023-07-22T09:11:49.123Z,62.10
2023-07-22T09:14:35.747Z,62.40
2023-07-22T09:17:05.583Z,62.60
2023-07-22T09:19:33.766Z,61.40
2023-07-22T09:22:01.714Z,62.40
2023-07-22T09:24:30.476Z,62.50
2023-07-22T09:26:59.994Z,62.80
2023-07-22T09:29:41.156Z,63.30
2023-07-22T09:32:09.562Z,63.40
2023-07-22T09:34:37.464Z,63.80
2023-07-22T09:37:06.343Z,62.90
2023-07-22T09:39:35.281Z,63.20
2023-07-22T09:42:04.621Z,63.30
2023-07-22T09:44:34.284Z,62.30
2023-07-22T09:47:10.425Z,62.00
2023-07-22T09:49:42.623Z,61.80
2023-07-22T09:52:13.382Z,61.10
2023-07-22T09:54:50.248Z,60.80
2023-07-22T09:57:18.854Z,60.60
2023-07-22T09:59:47.488Z,60.70
2023-07-22T10:02:21.196Z,62.20
2023-07-22T10:04:51.007Z,62.00
2023-07-22T10:07:20.205Z,60.60
2023-07-22T10:09:49.019Z,59.80
2023-07-22T10:12:16.951Z,59.60
2023-07-22T10:14:45.968Z,60.30
2023-07-22T10:17:15.116Z,59.20
2023-07-22T10:19:45.261Z,60.00
2023-07-22T10:22:13.721Z,59.40
2023-07-22T10:24:42.864Z,59.40
2023-07-22T10:27:11.351Z,59.50
2023-07-22T10:29:40.408Z,59.70
2023-07-22T10:32:08.803Z,58.70
2023-07-22T10:34:36.752Z,60.30
2023-07-22T10:37:06.339Z,60.30
2023-07-22T10:39:34.345Z,60.30
2023-07-22T10:42:06.522Z,59.90
2023-07-22T10:44:35.126Z,60.40
2023-07-22T10:47:04.759Z,59.90
2023-07-22T10:49:46.215Z,59.40
2023-07-22T10:52:16.190Z,59.40
2023-07-22T10:54:44.336Z,58.50
2023-07-22T10:57:27.625Z,58.00
2023-07-22T10:59:58.369Z,58.30
2023-07-22T11:02:26.523Z,57.90
2023-07-22T11:04:56.724Z,57.90
2023-07-22T11:07:36.644Z,58.20
2023-07-22T11:10:17.148Z,57.20
2023-07-22T11:12:46.318Z,58.40
2023-07-22T11:15:17.323Z,56.80
2023-07-22T11:17:45.347Z,56.90
2023-07-22T11:20:13.453Z,57.40
2023-07-22T11:22:44.485Z,56.90
2023-07-22T11:25:19.496Z,57.30
2023-07-22T11:27:48.021Z,57.40
2023-07-22T11:30:16.110Z,57.50
2023-07-22T11:32:45.576Z,56.90
2023-07-22T11:35:13.500Z,57.40
2023-07-22T11:37:43.152Z,57.30
2023-07-22T11:40:14.366Z,57.20
2023-07-22T11:42:42.306Z,57.10
2023-07-22T11:45:11.421Z,56.70
2023-07-22T11:47:39.818Z,57.20
2023-07-22T11:50:08.757Z,56.70
2023-07-22T11:52:36.683Z,57.30
2023-07-22T11:55:06.684Z,57.50
2023-07-22T11:57:34.613Z,57.40
2023-07-22T12:00:02.666Z,57.50
2023-07-22T12:02:38.143Z,57.80
2023-07-22T12:05:07.384Z,58.30
2023-07-22T12:07:36.763Z,58.10
2023-07-22T12:10:07.778Z,58.40
2023-07-22T12:12:35.994Z,58.20
2023-07-22T12:15:06.492Z,58.60
2023-07-22T12:17:49.775Z,58.80
2023-07-22T12:20:19.878Z,58.30
2023-07-22T12:22:47.788Z,58.40
2023-07-22T12:25:17.103Z,59.10
2023-07-22T12:27:46.334Z,59.20
2023-07-22T12:30:15.608Z,59.10
2023-07-22T12:32:44.921Z,58.50
2023-07-22T12:35:14.678Z,57.80
2023-07-22T12:37:42.591Z,58.40
2023-07-22T12:40:13.601Z,57.30
2023-07-22T12:42:43.161Z,57.80
2023-07-22T12:45:11.547Z,57.10
2023-07-22T12:47:39.438Z,57.10
2023-07-22T12:50:09.574Z,56.50
2023-07-22T12:52:37.677Z,56.80
2023-07-22T12:55:06.229Z,56.70
2023-07-22T12:57:34.207Z,57.30
2023-07-22T13:00:07.056Z,57.50
2023-07-22T13:02:35.017Z,57.80
2023-07-22T13:05:03.047Z,57.20
2023-07-22T13:07:30.927Z,57.30
2023-07-22T13:10:01.394Z,57.90
2023-07-22T13:12:29.392Z,56.70
2023-07-22T13:14:58.340Z,57.10
2023-07-22T13:17:27.843Z,57.70
2023-07-22T13:19:55.766Z,57.80
2023-07-22T13:22:23.657Z,57.50
2023-07-22T13:24:51.534Z,57.40
2023-07-22T13:27:19.456Z,57.10
2023-07-22T13:29:47.613Z,57.30
2023-07-22T13:32:15.518Z,57.20
2023-07-22T13:34:44.742Z,57.00
2023-07-22T13:37:12.809Z,57.30
2023-07-22T13:39:40.726Z,56.80
2023-07-22T13:42:08.894Z,56.80
2023-07-22T13:44:39.376Z,56.40
2023-07-22T13:47:08.641Z,56.80
2023-07-22T13:49:36.551Z,56.80
2023-07-22T13:52:06.358Z,57.30
2023-07-22T13:54:34.226Z,56.90
2023-07-22T13:57:02.185Z,56.80
2023-07-22T13:59:32.268Z,57.10
2023-07-22T14:02:00.258Z,57.80
2023-07-22T14:04:28.250Z,57.40
2023-07-22T14:06:56.111Z,56.50
2023-07-22T14:09:27.855Z,56.30
2023-07-22T14:11:55.812Z,56.20
2023-07-22T14:14:29.350Z,56.00
2023-07-22T14:16:57.620Z,56.60
2023-07-22T14:19:26.628Z,56.60
2023-07-22T14:21:54.530Z,56.80
2023-07-22T14:24:22.452Z,56.50
2023-07-22T14:26:51.742Z,56.70
2023-07-22T14:29:19.643Z,56.30
2023-07-22T14:31:47.775Z,56.50
2023-07-22T14:34:15.755Z,56.30
2023-07-22T14:36:45.912Z,56.50
2023-07-22T14:39:21.765Z,55.40
2023-07-22T14:41:52.742Z,54.70
2023-07-22T14:44:26.138Z,54.50
2023-07-22T14:46:54.701Z,52.50
2023-07-22T14:49:22.662Z,53.10
2023-07-22T14:51:50.567Z,55.00
2023-07-22T14:54:19.776Z,54.30
2023-07-22T14:56:47.679Z,54.00
2023-07-22T14:59:17.883Z,54.30
2023-07-22T15:01:45.877Z,54.80
2023-07-22T15:04:13.803Z,53.90
2023-07-22T15:06:41.676Z,54.70
2023-07-22T15:09:09.800Z,54.30
2023-07-22T15:11:38.608Z,54.50
2023-07-22T15:14:06.856Z,53.50
2023-07-22T15:16:36.457Z,53.50
2023-07-22T15:19:04.397Z,54.40
2023-07-22T15:21:32.311Z,53.90
2023-07-22T15:24:00.426Z,54.40
2023-07-22T15:26:28.317Z,54.30
2023-07-22T15:28:56.230Z,54.90
2023-07-22T15:31:24.314Z,54.90
2023-07-22T15:33:53.560Z,54.60
2023-07-22T15:36:21.502Z,55.00
2023-07-22T15:38:49.414Z,54.40
2023-07-22T15:41:17.384Z,54.40
2023-07-22T15:43:45.360Z,54.50
2023-07-22T15:46:13.369Z,54.80
2023-07-22T15:48:41.254Z,55.20
2023-07-22T15:51:10.489Z,55.20
2023-07-22T15:53:38.522Z,55.10
2023-07-22T15:56:06.572Z,55.20
2023-07-22T15:58:35.667Z,55.20
2023-07-22T16:01:03.697Z,55.20
2023-07-22T16:03:32.516Z,54.90
2023-07-22T16:06:00.490Z,55.00
2023-07-22T16:08:33.169Z,55.10
2023-07-22T16:11:01.120Z,55.10
2023-07-22T16:13:29.030Z,54.80
2023-07-22T16:15:57.087Z,54.80
2023-07-22T16:18:24.985Z,54.70
2023-07-22T16:20:52.917Z,54.40
2023-07-22T16:23:20.900Z,54.20
2023-07-22T16:25:50.175Z,54.10
2023-07-22T16:28:18.074Z,54.50
2023-07-22T16:30:45.961Z,54.20
2023-07-22T16:33:14.198Z,54.20
2023-07-22T16:35:42.229Z,54.10
2023-07-22T16:38:10.431Z,54.00
2023-07-22T16:40:38.384Z,54.30
2023-07-22T16:43:07.645Z,54.80
2023-07-22T16:45:35.587Z,54.50
2023-07-22T16:48:03.690Z,54.80
2023-07-22T16:50:32.815Z,54.90
2023-07-22T16:53:03.864Z,55.00
2023-07-22T16:55:31.833Z,55.00
2023-07-22T16:57:59.748Z,55.10
2023-07-22T17:00:31.369Z,54.90
2023-07-22T17:02:59.483Z,55.20
2023-07-22T17:05:27.430Z,55.30
2023-07-22T17:07:55.306Z,55.30
2023-07-22T17:10:23.211Z,55.20
2023-07-22T17:12:51.133Z,55.20
2023-07-22T17:15:19.036Z,55.10
2023-07-22T17:17:48.276Z,55.40
2023-07-22T17:20:16.705Z,55.30
2023-07-22T17:22:44.600Z,55.20
2023-07-22T17:25:13.013Z,55.30
2023-07-22T17:27:40.921Z,55.50
2023-07-22T17:30:09.859Z,55.40
2023-07-22T17:32:37.826Z,55.80
2023-07-22T17:35:08.158Z,55.30
2023-07-22T17:37:36.073Z,55.70
2023-07-22T17:40:04.204Z,55.60
2023-07-22T17:42:32.148Z,55.80
2023-07-22T17:45:00.051Z,55.80
2023-07-22T17:47:28.120Z,55.60
2023-07-22T17:49:56.550Z,55.90
2023-07-22T17:52:25.941Z,55.90
2023-07-22T17:54:53.867Z,56.40
2023-07-22T17:57:21.801Z,56.10
2023-07-22T17:59:50.814Z,55.80
2023-07-22T18:02:19.065Z,56.10
2023-07-22T18:04:49.505Z,55.90
2023-07-22T18:07:17.523Z,55.90
2023-07-22T18:09:46.766Z,56.10
2023-07-22T18:12:17.232Z,55.90
2023-07-22T18:14:45.176Z,56.10
2023-07-22T18:17:13.187Z,55.70
2023-07-22T18:19:41.293Z,55.80
2023-07-22T18:22:09.326Z,55.60
2023-07-22T18:24:37.348Z,55.80
2023-07-22T18:27:07.532Z,56.30
2023-07-22T18:29:35.480Z,58.20
2023-07-22T18:32:03.407Z,58.90
2023-07-22T18:34:31.484Z,60.20
2023-07-22T18:36:59.512Z,60.50
2023-07-22T18:39:27.435Z,61.30
2023-07-22T18:41:55.375Z,62.00
2023-07-22T18:44:24.618Z,62.70
2023-07-22T18:46:52.578Z,63.40
2023-07-22T18:49:20.547Z,63.40
2023-07-22T18:51:48.417Z,64.00
2023-07-22T18:54:16.323Z,64.40
2023-07-22T18:56:44.333Z,64.80
2023-07-22T18:59:12.280Z,65.20
2023-07-22T19:01:41.563Z,64.20
2023-07-22T19:04:09.487Z,64.00
2023-07-22T19:06:37.434Z,63.70
2023-07-22T19:09:05.412Z,64.80
2023-07-22T19:11:33.448Z,65.30
2023-07-22T19:14:01.378Z,64.70
2023-07-22T19:16:29.445Z,64.90
2023-07-22T19:18:58.832Z,65.10
2023-07-22T19:21:26.884Z,65.30
2023-07-22T19:23:54.960Z,65.10
2023-07-22T19:26:22.903Z,65.10
2023-07-22T19:28:50.844Z,65.50
2023-07-22T19:31:18.873Z,65.80
2023-07-22T19:33:46.823Z,65.40
2023-07-22T19:36:16.073Z,65.10
2023-07-22T19:38:44.898Z,65.50
2023-07-22T19:41:13.936Z,65.90
2023-07-22T19:43:43.105Z,65.80
2023-07-22T19:46:12.908Z,66.40
2023-07-22T19:48:41.791Z,66.60
2023-07-22T19:51:11.795Z,67.00
2023-07-22T19:53:41.044Z,66.60
2023-07-22T19:56:10.197Z,67.20
2023-07-22T19:58:41.083Z,66.70
2023-07-22T20:01:09.786Z,68.40
2023-07-22T20:03:42.764Z,69.00
2023-07-22T20:06:23.482Z,69.00
2023-07-22T20:09:05.123Z,69.80
2023-07-22T20:11:39.668Z,69.10
2023-07-22T20:14:09.610Z,68.20
2023-07-22T20:16:37.596Z,68.20
2023-07-22T20:19:05.641Z,68.40
2023-07-22T20:21:33.570Z,69.30
2023-07-22T20:24:02.850Z,69.70
2023-07-22T20:26:30.719Z,69.50
2023-07-22T20:28:58.699Z,70.10
2023-07-22T20:31:26.868Z,68.90
2023-07-22T20:33:54.986Z,71.10
2023-07-22T20:36:22.894Z,70.20
2023-07-22T20:38:50.781Z,69.70
2023-07-22T20:41:20.061Z,69.20
2023-07-22T20:43:47.960Z,70.40
2023-07-22T20:46:15.948Z,70.30
2023-07-22T20:48:43.898Z,70.70
2023-07-22T20:51:14.849Z,71.20
2023-07-22T20:53:42.731Z,71.80
2023-07-22T20:56:10.678Z,70.80
2023-07-22T20:58:39.938Z,70.90
2023-07-22T21:01:07.891Z,71.70
2023-07-22T21:03:35.805Z,70.40
2023-07-22T21:06:03.814Z,71.40
2023-07-22T21:08:31.743Z,71.10
2023-07-22T21:11:01.627Z,70.90
2023-07-22T21:13:31.409Z,72.30
2023-07-22T21:16:00.812Z,72.20
2023-07-22T21:18:28.826Z,72.40
2023-07-22T21:20:56.756Z,72.80
2023-07-22T21:23:24.695Z,71.00
2023-07-22T21:25:56.500Z,72.40
2023-07-22T21:28:24.395Z,71.00
2023-07-22T21:30:52.322Z,71.90
2023-07-22T21:33:21.977Z,72.20
2023-07-22T21:35:50.031Z,72.90
2023-07-22T21:38:17.964Z,74.80
2023-07-22T21:40:50.532Z,74.80
2023-07-22T21:43:18.425Z,73.70
2023-07-22T21:45:47.548Z,73.80
2023-07-22T21:48:15.694Z,73.60
2023-07-22T21:50:44.946Z,73.10
2023-07-22T21:53:12.987Z,73.00
2023-07-22T21:55:40.906Z,74.10
2023-07-22T21:58:09.194Z,74.60
2023-07-22T22:00:37.289Z,73.90
2023-07-22T22:03:06.746Z,74.20
2023-07-22T22:05:34.656Z,74.00
2023-07-22T22:08:03.925Z,73.30
2023-07-22T22:10:32.463Z,75.00
2023-07-22T22:13:00.597Z,74.80
2023-07-22T22:15:28.629Z,75.40
2023-07-22T22:18:00.381Z,75.60
2023-07-22T22:20:28.978Z,75.50
2023-07-22T22:22:56.940Z,74.80
2023-07-22T22:25:26.178Z,75.00
2023-07-22T22:27:54.063Z,76.40
2023-07-22T22:30:22.269Z,77.00
2023-07-22T22:32:53.001Z,78.00
2023-07-22T22:35:21.476Z,77.60
2023-07-22T22:37:49.433Z,77.80
2023-07-22T22:40:17.422Z,77.30
2023-07-22T22:42:46.701Z,77.40
2023-07-22T22:45:15.081Z,78.00
2023-07-22T22:47:43.767Z,78.50
2023-07-22T22:50:11.945Z,78.80
2023-07-22T22:52:39.831Z,81.30
2023-07-22T22:55:08.311Z,85.30
2023-07-22T22:57:36.249Z,87.30
2023-07-22T23:00:06.840Z,88.30
2023-07-22T23:02:35.840Z,90.20
2023-07-22T23:05:03.924Z,88.50
2023-07-22T23:07:32.070Z,84.00
2023-07-22T23:10:00.084Z,82.70
2023-07-22T23:12:28.019Z,83.60
2023-07-22T23:14:55.932Z,84.30
2023-07-22T23:17:25.162Z,86.30
2023-07-22T23:19:53.054Z,86.00
2023-07-22T23:22:20.938Z,85.40
2023-07-22T23:24:48.908Z,86.10
2023-07-22T23:27:16.901Z,87.80
2023-07-22T23:29:45.107Z,89.70
2023-07-22T23:32:13.057Z,91.00
2023-07-22T23:34:42.331Z,91.70
2023-07-22T23:37:10.306Z,92.50
2023-07-22T23:39:38.168Z,93.50
2023-07-22T23:42:06.444Z,94.60
2023-07-22T23:44:34.403Z,94.80
2023-07-22T23:47:02.262Z,95.90
2023-07-22T23:49:30.128Z,96.30
2023-07-22T23:51:59.381Z,95.80
2023-07-22T23:54:27.295Z,95.80
2023-07-22T23:56:55.234Z,96.60
2023-07-22T23:59:23.114Z,95.50
